Comfort, West Virginia
Current Conditions -  °F | °C
As of 6:54 AM on Wednesday 28 Jan 2015 (Local Time) from KCRW Reporting Station
Few Clouds Few Clouds  
Wind Chill: 17°   Ceiling: Unl
Heat Index: 17°   Visibility: 10mi
Dew Point: 11°   Wind: 0mph
Humidity: 77%   Direction: NA
Pressure: 30.33"   Gusts: NA
Location:  38.12°N, 81.62°W
Report Text: KCRW 281154Z 00000KT 10SM FEW023 M08/M12 A3033 RMK AO2 SLP283 4/001 60000 T10831117 11056 21083 53026
Loading
Personal Weather Stations






























Interactive Weather Map New forecast layout! Learn more

10-Day Weather Forecast

Advertisements
Track Severe Weather on mobile